Time;durP1;ratioP1;P1;durP2;ratioP2;P2;SDS_P1;SDS_P2;PMS_P1;PMS_P2;Temp;Humidity;BMP_temperature;BMP_pressure;BME280_temperature;BME280_humidity;BME280_pressure;Samples;Min_cycle;Max_cycle;Signal;HPM_P1;HPM_P2
2024/02/12 00:07:47;;;;;;;15.70;14.10;;;;;;;7.85;100.00;97270.58;438168;1261;140368;-58
2024/02/12 00:17:57;;;;;;;17.00;15.10;;;;;;;7.85;100.00;97272.09;440911;1257;139935;-62
2024/02/12 00:28:08;;;;;;;14.70;12.50;;;;;;;7.86;100.00;97277.13;435181;1257;140225;-59
2024/02/12 00:38:14;;;;;;;14.20;12.00;;;;;;;7.80;100.00;97276.38;449479;1259;141033;-58
2024/02/12 00:48:20;;;;;;;10.90;9.00;;;;;;;7.74;100.00;97282.84;439494;1259;139715;-58
2024/02/12 00:58:27;;;;;;;7.20;6.20;;;;;;;7.60;100.00;97279.41;449354;1259;140296;-58
2024/02/12 01:08:33;;;;;;;7.40;6.70;;;;;;;7.48;100.00;97285.02;443305;1257;139446;-56
2024/02/12 01:18:39;;;;;;;6.10;5.50;;;;;;;7.42;100.00;97289.36;435949;1262;139500;-62
2024/02/12 01:28:46;;;;;;;6.90;5.40;;;;;;;7.35;100.00;97294.98;445569;1262;139838;-62
2024/02/12 01:38:52;;;;;;;5.10;4.60;;;;;;;7.32;100.00;97302.77;436837;1260;139693;-58
2024/02/12 01:48:59;;;;;;;6.10;5.60;;;;;;;7.30;100.00;97306.94;435790;1260;139305;-58
2024/02/12 01:59:06;;;;;;;5.40;4.90;;;;;;;7.27;100.00;97308.86;449597;1259;139692;-57
2024/02/12 02:09:12;;;;;;;5.10;4.50;;;;;;;7.25;100.00;97310.10;441435;1259;140533;-64
2024/02/12 02:19:23;;;;;;;5.40;4.90;;;;;;;7.22;100.00;97311.27;435283;1262;139271;-57
2024/02/12 02:29:30;;;;;;;4.70;4.30;;;;;;;7.15;100.00;97317.19;444411;1261;139251;-61
2024/02/12 02:39:36;;;;;;;4.30;3.90;;;;;;;7.08;100.00;97322.55;434967;1262;139915;-56
2024/02/12 02:49:43;;;;;;;4.10;3.70;;;;;;;7.03;100.00;97334.08;434825;1260;139964;-64
2024/02/12 02:59:49;;;;;;;4.50;4.10;;;;;;;6.95;100.00;97337.36;435127;1261;139362;-61
2024/02/12 03:09:57;;;;;;;3.90;3.30;;;;;;;6.89;100.00;97345.34;434845;1262;139824;-58
2024/02/12 03:20:04;;;;;;;3.20;3.00;;;;;;;6.83;100.00;97351.42;435160;1261;139365;-59
2024/02/12 03:30:11;;;;;;;3.50;3.20;;;;;;;6.77;100.00;97359.42;437970;1262;139302;-59
2024/02/12 03:40:18;;;;;;;3.40;3.10;;;;;;;6.71;100.00;97372.56;441881;1259;140606;-59
2024/02/12 04:00:50;;;;;;;3.40;2.80;;;;;;;6.59;100.00;97382.64;435360;1259;139600;-59
2024/02/12 04:10:57;;;;;;;3.80;3.40;;;;;;;6.54;100.00;97387.93;446483;1257;139354;-60
2024/02/12 04:21:08;;;;;;;3.80;3.50;;;;;;;6.50;100.00;97392.55;438924;1259;139540;-58
2024/02/12 04:31:15;;;;;;;3.20;3.00;;;;;;;6.46;100.00;97399.84;435580;1262;139252;-59
2024/02/12 04:41:24;;;;;;;3.20;2.90;;;;;;;6.41;100.00;97398.98;449568;1258;139321;-58
2024/02/12 04:51:31;;;;;;;4.00;3.10;;;;;;;6.38;100.00;97400.54;438344;1259;141025;-57
2024/02/12 05:01:37;;;;;;;3.00;2.80;;;;;;;6.37;100.00;97402.17;441370;1259;139340;-57
2024/02/12 05:11:45;;;;;;;3.40;2.90;;;;;;;6.34;100.00;97408.26;435600;1262;139417;-58
2024/02/12 05:32:15;;;;;;;3.00;2.80;;;;;;;6.29;100.00;97426.59;440215;1259;139992;-58
2024/02/12 05:42:21;;;;;;;4.00;3.60;;;;;;;6.26;100.00;97433.59;444954;1259;140367;-59
2024/02/12 05:52:27;;;;;;;3.70;3.40;;;;;;;6.23;100.00;97443.42;449368;1259;139881;-59
2024/02/12 06:02:35;;;;;;;5.50;5.00;;;;;;;6.21;100.00;97452.94;449538;1259;139944;-58
2024/02/12 06:12:42;;;;;;;4.20;3.80;;;;;;;6.19;100.00;97462.81;439964;1262;139496;-59
2024/02/12 06:22:49;;;;;;;3.70;3.40;;;;;;;6.18;100.00;97469.00;436101;1260;139979;-61
2024/02/12 06:32:57;;;;;;;3.30;2.80;;;;;;;6.18;100.00;97482.40;435293;1262;140126;-62
2024/02/12 06:43:04;;;;;;;5.10;4.20;;;;;;;6.17;100.00;97489.90;437525;1259;5098297;-58
2024/02/12 06:53:10;;;;;;;;;;;;;;;6.19;100.00;97504.54;447758;1257;139225;-58
2024/02/12 07:03:16;;;;;;;9.30;5.30;;;;;;;6.20;100.00;97514.40;449576;1259;125808;-67
2024/02/12 07:13:22;;;;;;;5.00;3.80;;;;;;;6.22;100.00;97517.66;449391;1259;139718;-67
2024/02/12 07:23:28;;;;;;;5.70;5.10;;;;;;;6.27;100.00;97525.77;449523;1257;138769;-55
2024/02/12 07:33:34;;;;;;;4.80;4.30;;;;;;;6.31;100.00;97532.90;445198;1259;139345;-55
2024/02/12 07:43:42;;;;;;;6.60;6.00;;;;;;;6.36;100.00;97545.56;435860;1262;139754;-55
2024/02/12 07:53:48;;;;;;;6.70;5.30;;;;;;;6.37;100.00;97554.02;442780;1259;139222;-58
2024/02/12 08:03:54;;;;;;;5.10;4.60;;;;;;;6.35;100.00;97567.02;436855;1259;140435;-58
2024/02/12 08:14:02;;;;;;;5.30;4.80;;;;;;;6.36;100.00;97576.86;435487;1260;139424;-58
2024/02/12 08:24:09;;;;;;;7.80;6.00;;;;;;;6.41;100.00;97594.21;438342;1262;139494;-65
2024/02/12 08:34:17;;;;;;;6.50;5.50;;;;;;;6.45;100.00;97604.52;437585;1262;139399;-64
2024/02/12 08:44:25;;;;;;;6.00;4.50;;;;;;;6.52;100.00;97609.89;435847;1260;139308;-67
2024/02/12 08:54:31;;;;;;;8.80;5.20;;;;;;;6.58;100.00;97616.53;437806;1260;140159;-62
2024/02/12 09:04:38;;;;;;;5.30;4.70;;;;;;;6.60;100.00;97634.64;435230;1262;139627;-61
2024/02/12 09:14:45;;;;;;;5.80;5.30;;;;;;;6.64;100.00;97648.77;436010;1261;139440;-61
2024/02/12 09:24:54;;;;;;;6.70;6.00;;;;;;;6.64;100.00;97664.20;449136;1259;139439;-61
2024/02/12 09:35:03;;;;;;;5.50;5.00;;;;;;;6.66;100.00;97671.85;436756;1260;139335;-64
2024/02/12 09:45:11;;;;;;;;;;;;;;;6.68;100.00;97679.02;438508;1262;139332;-72
2024/02/12 09:55:19;;;;;;;6.20;4.40;;;;;;;6.71;100.00;97690.21;437183;1262;125894;-63
2024/02/12 10:05:29;;;;;;;5.90;4.60;;;;;;;6.77;100.00;97703.89;438253;1260;140354;-63
2024/02/12 10:15:37;;;;;;;5.20;3.90;;;;;;;6.85;100.00;97708.64;442940;1261;139061;-65
2024/02/12 10:25:50;;;;;;;7.80;5.40;;;;;;;6.92;100.00;97713.33;435603;1258;139638;-67
2024/02/12 10:36:00;;;;;;;5.90;4.70;;;;;;;7.12;100.00;97713.63;440913;1260;140119;-72
2024/02/12 10:46:07;;;;;;;6.50;5.00;;;;;;;7.24;100.00;97713.95;441510;1262;139791;-61
2024/02/12 10:56:15;;;;;;;5.00;4.20;;;;;;;7.38;100.00;97714.06;443618;1259;139380;-61
2024/02/12 11:06:21;;;;;;;6.00;5.00;;;;;;;7.55;100.00;97715.30;440006;1262;139700;-61
2024/02/12 11:16:33;;;;;;;7.40;6.10;;;;;;;7.70;100.00;97722.21;438033;1260;139521;-61
2024/02/12 11:26:43;;;;;;;5.80;5.00;;;;;;;7.71;100.00;97730.13;437546;1262;141113;-67
2024/02/12 11:36:59;;;;;;;5.10;4.20;;;;;;;7.60;100.00;97740.65;439829;1258;140849;-67
2024/02/12 11:47:06;;;;;;;7.90;6.20;;;;;;;7.50;100.00;97751.59;442380;1260;139474;-73
2024/02/12 11:57:12;;;;;;;6.80;4.90;;;;;;;7.55;100.00;97748.20;438332;1260;139948;-70
2024/02/12 12:07:19;;;;;;;7.40;5.10;;;;;;;7.57;100.00;97750.48;437264;1262;139340;-62
2024/02/12 12:17:28;;;;;;;7.10;5.40;;;;;;;7.72;100.00;97757.48;437051;1260;139614;-60
2024/02/12 12:27:39;;;;;;;6.20;5.10;;;;;;;8.03;100.00;97764.33;440435;1260;139299;-69
2024/02/12 12:37:49;;;;;;;8.30;5.90;;;;;;;8.15;100.00;97763.30;445844;1260;139571;-64
2024/02/12 12:47:55;;;;;;;8.10;5.50;;;;;;;8.24;100.00;97770.82;441806;1259;138914;-59
2024/02/12 12:58:03;;;;;;;5.40;4.70;;;;;;;8.02;100.00;97774.56;443676;1261;140222;-62
2024/02/12 13:08:12;;;;;;;5.60;4.30;;;;;;;7.82;100.00;97777.05;437418;1262;139369;-58
2024/02/12 13:18:29;;;;;;;;;;;;;;;7.71;100.00;97789.89;437379;1262;139912;-64
2024/02/12 13:28:39;;;;;;;6.20;5.10;;;;;;;7.66;100.00;97804.27;436908;1262;126256;-62
2024/02/12 13:38:46;;;;;;;5.70;5.10;;;;;;;7.57;100.00;97810.02;438860;1262;140619;-67
2024/02/12 13:48:53;;;;;;;6.70;4.40;;;;;;;7.43;100.00;97817.92;438989;1262;139348;-58
2024/02/12 13:58:59;;;;;;;7.70;5.50;;;;;;;7.31;100.00;97826.03;449199;1260;139528;-60
2024/02/12 14:09:07;;;;;;;5.80;4.70;;;;;;;7.22;100.00;97842.38;444688;1262;139643;-59
2024/02/12 14:19:13;;;;;;;5.10;4.00;;;;;;;7.15;100.00;97856.63;449073;1260;139412;-59
2024/02/12 14:29:20;;;;;;;4.40;4.00;;;;;;;7.21;100.00;97866.94;449210;1262;140277;-69
2024/02/12 14:39:27;;;;;;;;;;;;;;;7.24;100.00;97874.42;441102;1260;139390;-58
2024/02/12 14:49:33;;;;;;;4.10;3.60;;;;;;;7.27;100.00;97891.94;436582;1262;125647;-57
2024/02/12 14:59:39;;;;;;;;;;;;;;;7.33;100.00;97904.20;438643;1263;141181;-62
2024/02/12 15:09:46;;;;;;;5.90;4.50;;;;;;;7.29;100.00;97921.20;441133;1262;125654;-62
2024/02/12 15:19:53;;;;;;;7.40;4.30;;;;;;;7.26;100.00;97934.10;436588;1259;140635;-66
2024/02/12 15:29:59;;;;;;;7.40;4.00;;;;;;;7.23;100.00;97955.59;435710;1262;139580;-57
2024/02/12 15:40:07;;;;;;;7.70;5.40;;;;;;;7.16;100.00;97972.14;442355;1259;139972;-58
2024/02/12 15:50:16;;;;;;;5.50;4.40;;;;;;;7.08;100.00;97992.23;444056;1263;139338;-59
2024/02/12 16:00:26;;;;;;;6.80;4.50;;;;;;;7.01;100.00;98007.81;443203;1262;139416;-57
2024/02/12 16:10:35;;;;;;;5.50;4.90;;;;;;;6.96;100.00;98027.01;449371;1259;140995;-56
2024/02/12 16:20:42;;;;;;;7.60;5.60;;;;;;;6.91;100.00;98040.40;436851;1257;139303;-59
2024/02/12 16:30:49;;;;;;;8.40;4.70;;;;;;;6.80;100.00;98053.40;444768;1257;139622;-57
2024/02/12 16:40:59;;;;;;;10.70;6.70;;;;;;;6.71;100.00;98067.76;438827;1259;139952;-57
2024/02/12 16:51:05;;;;;;;5.30;4.60;;;;;;;6.65;100.00;98086.79;437429;1260;184846;-60
2024/02/12 17:01:12;;;;;;;7.90;5.80;;;;;;;6.65;100.00;98094.00;445687;1259;139581;-64
2024/02/12 17:11:20;;;;;;;6.70;6.10;;;;;;;6.61;100.00;98099.62;440312;1259;142892;-62
2024/02/12 17:21:27;;;;;;;;;;;;;;;6.52;100.00;98103.02;438547;1260;139801;-63
2024/02/12 17:31:35;;;;;;;7.90;6.60;;;;;;;6.41;100.00;98117.01;435850;1261;126717;-58
2024/02/12 17:41:42;;;;;;;8.20;7.20;;;;;;;6.28;100.00;98123.80;436226;1258;140074;-60
2024/02/12 17:51:49;;;;;;;7.60;6.80;;;;;;;6.19;100.00;98127.62;436370;1261;140055;-56
2024/02/12 18:01:55;;;;;;;8.40;6.20;;;;;;;6.08;100.00;98132.32;435580;1263;140080;-54
2024/02/12 18:12:02;;;;;;;9.20;6.70;;;;;;;6.01;100.00;98139.54;435890;1263;141352;-62
2024/02/12 18:22:09;;;;;;;30.40;18.00;;;;;;;5.86;100.00;98152.88;438431;1260;139317;-61
2024/02/12 18:32:15;;;;;;;12.60;8.50;;;;;;;5.71;100.00;98165.71;437330;1261;139841;-59
2024/02/12 18:42:24;;;;;;;10.30;6.60;;;;;;;5.74;100.00;98181.27;435959;1260;2381485;-58
2024/02/12 18:52:31;;;;;;;9.70;7.60;;;;;;;5.82;100.00;98187.91;438090;1259;140096;-50
2024/02/12 19:02:37;;;;;;;9.60;6.80;;;;;;;5.76;100.00;98194.35;436312;1257;139797;-58
2024/02/12 19:12:46;;;;;;;12.80;8.20;;;;;;;5.56;100.00;98210.94;438130;1262;139851;-59
2024/02/12 19:22:52;;;;;;;21.60;13.90;;;;;;;5.54;100.00;98228.10;449342;1259;140313;-51
2024/02/12 19:32:57;;;;;;;15.60;11.80;;;;;;;5.55;100.00;98242.58;439506;1259;140410;-52
2024/02/12 19:43:09;;;;;;;11.90;9.90;;;;;;;5.53;100.00;98259.91;442831;1259;139755;-61
2024/02/12 19:53:18;;;;;;;16.80;11.50;;;;;;;5.46;100.00;98270.59;445373;1259;140836;-62
2024/02/12 20:03:24;;;;;;;13.20;8.40;;;;;;;5.26;100.00;98281.76;449619;1257;139556;-58
2024/02/12 20:13:30;;;;;;;15.70;9.60;;;;;;;5.05;100.00;98294.84;449414;1259;139457;-58
2024/02/12 20:23:36;;;;;;;12.20;8.00;;;;;;;4.89;100.00;98306.54;440304;1259;141891;-53
2024/02/12 20:33:42;;;;;;;11.80;8.00;;;;;;;4.76;100.00;98313.96;440737;1259;139324;-53
2024/02/12 20:43:49;;;;;;;10.20;7.20;;;;;;;4.63;100.00;98328.44;436839;1262;139652;-52
2024/02/12 20:53:55;;;;;;;9.50;6.70;;;;;;;4.52;100.00;98340.33;441940;1259;140316;-53
2024/02/12 21:04:06;;;;;;;12.00;7.50;;;;;;;4.51;100.00;98351.84;436011;1262;140045;-59
2024/02/12 21:14:13;;;;;;;8.30;6.70;;;;;;;4.53;100.00;98362.63;441432;1259;142218;-57
2024/02/12 21:24:19;;;;;;;9.30;6.90;;;;;;;4.62;100.00;98369.01;436239;1262;139262;-58
2024/02/12 21:34:26;;;;;;;8.10;6.60;;;;;;;4.77;100.00;98379.22;435968;1259;139700;-61
2024/02/12 21:44:33;;;;;;;11.00;8.20;;;;;;;4.97;100.00;98384.29;449511;1259;139911;-58
2024/02/12 21:54:41;;;;;;;8.70;6.70;;;;;;;5.12;100.00;98392.91;438609;1259;141330;-64
2024/02/12 22:04:49;;;;;;;8.70;6.70;;;;;;;5.24;100.00;98402.50;435957;1261;139556;-64
2024/02/12 22:14:57;;;;;;;9.20;7.60;;;;;;;5.31;100.00;98411.94;436811;1261;139854;-65
2024/02/12 22:25:04;;;;;;;8.90;7.70;;;;;;;5.35;100.00;98435.27;436040;1260;152038;-65
2024/02/12 22:35:12;;;;;;;9.60;7.40;;;;;;;5.35;100.00;98446.39;437564;1259;139316;-65
2024/02/12 22:45:19;;;;;;;11.90;8.80;;;;;;;5.23;100.00;98462.56;441484;1259;139514;-64
2024/02/12 22:55:27;;;;;;;7.10;6.50;;;;;;;5.16;100.00;98473.02;449370;1258;140457;-61
2024/02/12 23:05:34;;;;;;;8.90;7.40;;;;;;;5.20;100.00;98487.21;443896;1259;139731;-61
2024/02/12 23:15:41;;;;;;;8.90;6.50;;;;;;;5.24;100.00;98493.20;449589;1257;139461;-65
2024/02/12 23:25:49;;;;;;;7.30;5.30;;;;;;;5.26;100.00;98502.83;436262;1260;139894;-64
2024/02/12 23:35:55;;;;;;;5.60;5.00;;;;;;;5.25;100.00;98516.04;436530;1260;140295;-59
2024/02/12 23:46:01;;;;;;;8.70;5.90;;;;;;;5.23;100.00;98533.37;440754;1259;139814;-59
2024/02/12 23:56:08;;;;;;;6.30;4.50;;;;;;;5.21;100.00;98545.11;436204;1262;143348;-57
